Time;durP1;ratioP1;P1;durP2;ratioP2;P2;SDS_P1;SDS_P2;PMS_P1;PMS_P2;Temp;Humidity;BMP_temperature;BMP_pressure;BME280_temperature;BME280_humidity;BME280_pressure;Samples;Min_cycle;Max_cycle;Signal;HPM_P1;HPM_P2
2022/03/15 00:00:42;;;;;;;5.65;2.65;;;7.50;57.80;;;;;;4935358;28;20148;-66
2022/03/15 00:03:08;;;;;;;6.18;2.78;;;7.50;57.90;;;;;;4935611;28;20031;-66
2022/03/15 00:05:34;;;;;;;4.82;2.53;;;7.50;58.00;;;;;;4930861;28;20116;-66
2022/03/15 00:08:00;;;;;;;7.13;2.50;;;7.50;57.80;;;;;;4932642;28;20039;-64
2022/03/15 00:10:26;;;;;;;5.68;2.45;;;7.50;57.80;;;;;;4932589;28;20496;-65
2022/03/15 00:12:54;;;;;;;10.40;2.45;;;7.50;57.70;;;;;;4933756;28;20130;-66
2022/03/15 00:15:20;;;;;;;4.88;2.42;;;7.60;57.70;;;;;;4933660;28;20039;-66
2022/03/15 00:17:47;;;;;;;5.93;2.60;;;7.60;57.70;;;;;;4932868;28;20508;-65
2022/03/15 00:20:14;;;;;;;4.82;2.55;;;7.60;57.80;;;;;;4935530;28;20031;-66
2022/03/15 00:22:41;;;;;;;4.00;2.40;;;7.60;57.90;;;;;;4934075;28;20032;-66
2022/03/15 00:25:09;;;;;;;5.95;2.80;;;7.60;58.40;;;;;;4935718;28;20099;-66
2022/03/15 00:27:35;;;;;;;5.95;2.70;;;7.60;57.80;;;;;;4940326;28;20061;-66
2022/03/15 00:30:03;;;;;;;7.80;2.60;;;7.60;57.80;;;;;;4936652;28;20384;-66
2022/03/15 00:32:29;;;;;;;5.63;2.17;;;7.70;57.80;;;;;;4933491;28;20039;-67
2022/03/15 00:34:54;;;;;;;4.82;2.40;;;7.70;57.80;;;;;;4934536;28;20118;-66
2022/03/15 00:37:20;;;;;;;6.40;2.75;;;7.70;57.70;;;;;;4932435;28;20058;-63
2022/03/15 00:39:46;;;;;;;6.10;2.85;;;7.70;57.70;;;;;;4933347;28;20130;-66
2022/03/15 00:42:12;;;;;;;5.63;2.72;;;7.70;57.70;;;;;;4932529;28;20083;-65
2022/03/15 00:44:39;;;;;;;7.85;2.55;;;7.70;57.70;;;;;;4932490;28;20031;-65
2022/03/15 00:47:05;;;;;;;7.75;2.70;;;7.70;57.70;;;;;;4933809;28;20074;-66
2022/03/15 00:49:31;;;;;;;5.03;2.85;;;7.70;57.80;;;;;;4932997;28;20411;-66
2022/03/15 00:51:57;;;;;;;4.38;2.45;;;7.70;57.80;;;;;;4934461;28;20513;-66
2022/03/15 00:54:23;;;;;;;5.68;2.42;;;7.70;57.70;;;;;;4933598;28;20040;-66
2022/03/15 00:56:49;;;;;;;5.13;2.38;;;7.70;57.80;;;;;;4934085;28;20036;-66
2022/03/15 00:59:15;;;;;;;4.57;2.60;;;7.70;57.80;;;;;;4932366;28;20169;-66
2022/03/15 01:01:41;;;;;;;4.15;2.40;;;7.70;57.90;;;;;;4936630;28;20080;-66
2022/03/15 01:04:07;;;;;;;7.05;2.90;;;7.70;58.00;;;;;;4935098;28;20039;-66
2022/03/15 01:06:34;;;;;;;6.00;2.40;;;7.60;57.90;;;;;;4930570;28;20039;-66
2022/03/15 01:09:01;;;;;;;9.07;2.85;;;7.60;58.00;;;;;;4930464;28;20475;-66
2022/03/15 01:11:27;;;;;;;6.65;2.88;;;7.60;58.00;;;;;;4937697;28;20068;-66
2022/03/15 01:13:52;;;;;;;8.40;2.67;;;7.60;58.00;;;;;;4938353;28;20522;-66
2022/03/15 01:16:18;;;;;;;5.47;2.65;;;7.60;58.10;;;;;;4939316;28;20115;-66
2022/03/15 01:18:44;;;;;;;4.60;2.58;;;7.60;58.30;;;;;;4938028;28;20694;-66
2022/03/15 01:21:13;;;;;;;8.43;2.70;;;7.60;58.20;;;;;;4937826;28;20064;-66
2022/03/15 01:23:39;;;;;;;6.35;2.50;;;7.60;58.30;;;;;;4936208;28;20062;-66
2022/03/15 01:26:04;;;;;;;3.85;2.40;;;7.60;58.20;;;;;;4938652;28;20507;-66
2022/03/15 01:28:30;;;;;;;4.57;2.60;;;7.60;58.20;;;;;;4937781;28;20032;-66
2022/03/15 01:30:56;;;;;;;6.85;2.58;;;7.60;58.10;;;;;;4938947;28;20087;-66
2022/03/15 01:33:22;;;;;;;5.25;2.45;;;7.60;58.10;;;;;;4938245;28;20098;-66
2022/03/15 01:35:48;;;;;;;4.97;2.40;;;7.60;58.10;;;;;;4937241;28;20115;-66
2022/03/15 01:38:13;;;;;;;4.70;2.40;;;7.60;58.10;;;;;;4936707;28;20138;-65
2022/03/15 01:40:39;;;;;;;5.03;2.35;;;7.60;58.10;;;;;;4938569;28;20099;-65
2022/03/15 01:43:04;;;;;;;6.00;2.95;;;7.60;58.10;;;;;;4938999;28;20388;-66
2022/03/15 01:45:38;;;;;;;5.38;2.33;;;7.70;58.10;;;;;;4936103;28;20042;-65
2022/03/15 01:48:05;;;;;;;6.10;3.00;;;7.60;58.20;;;;;;4937013;28;20031;-66
2022/03/15 01:50:31;;;;;;;5.70;2.45;;;7.60;58.00;;;;;;4937442;28;20107;-65
2022/03/15 01:52:57;;;;;;;5.35;2.30;;;7.60;58.10;;;;;;4938928;28;20487;-66
2022/03/15 01:55:23;;;;;;;9.02;2.92;;;7.60;58.10;;;;;;4938022;28;20043;-66
2022/03/15 01:57:50;;;;;;;5.55;2.78;;;7.60;58.20;;;;;;4936870;28;20084;-66
2022/03/15 02:00:17;;;;;;;3.65;2.25;;;7.50;58.20;;;;;;4938170;28;20034;-66
2022/03/15 02:02:43;;;;;;;9.38;2.42;;;7.50;58.30;;;;;;4942648;28;20518;-66
2022/03/15 02:05:10;;;;;;;6.75;2.50;;;7.50;58.30;;;;;;4938132;28;21947;-66
2022/03/15 02:07:35;;;;;;;6.30;2.53;;;7.50;58.40;;;;;;4941308;28;20444;-65
2022/03/15 02:10:02;;;;;;;4.93;2.80;;;7.50;58.40;;;;;;4933783;28;20095;-66
2022/03/15 02:12:28;;;;;;;5.72;2.50;;;7.50;58.40;;;;;;4937803;28;20050;-66
2022/03/15 02:14:53;;;;;;;5.10;2.58;;;7.50;58.40;;;;;;4928123;28;20153;-66
2022/03/15 02:17:19;;;;;;;8.43;2.50;;;7.50;58.50;;;;;;4933760;28;20460;-66
2022/03/15 02:19:45;;;;;;;6.00;2.40;;;7.50;58.50;;;;;;4933748;28;20566;-66
2022/03/15 02:22:11;;;;;;;3.90;2.60;;;7.40;58.40;;;;;;4935549;28;20964;-65
2022/03/15 02:24:39;;;;;;;6.13;2.55;;;7.40;58.40;;;;;;4936730;28;20386;-66
2022/03/15 02:27:04;;;;;;;4.85;2.50;;;7.40;58.50;;;;;;4931299;28;20032;-65
2022/03/15 02:29:30;;;;;;;5.93;2.67;;;7.40;58.60;;;;;;4935055;28;20495;-66
2022/03/15 02:31:56;;;;;;;6.30;2.70;;;7.40;58.70;;;;;;4932789;28;20706;-66
2022/03/15 02:34:22;;;;;;;5.60;2.58;;;7.40;58.70;;;;;;4934909;28;20036;-66
2022/03/15 02:36:47;;;;;;;5.65;2.80;;;7.30;58.70;;;;;;4931596;28;20028;-66
2022/03/15 02:39:13;;;;;;;5.20;2.22;;;7.30;58.70;;;;;;4931347;28;20105;-66
2022/03/15 02:41:39;;;;;;;5.05;2.60;;;7.30;58.80;;;;;;4934166;28;20083;-66
2022/03/15 02:44:06;;;;;;;5.45;2.45;;;7.30;58.80;;;;;;4931208;28;20048;-66
2022/03/15 02:46:33;;;;;;;5.75;2.50;;;7.30;58.80;;;;;;4934782;28;20368;-66
2022/03/15 02:48:59;;;;;;;6.05;2.40;;;7.30;59.50;;;;;;4932025;28;20031;-65
2022/03/15 02:51:25;;;;;;;5.78;2.40;;;7.30;59.00;;;;;;4934724;28;20047;-66
2022/03/15 02:53:52;;;;;;;7.38;2.30;;;7.30;58.90;;;;;;4933875;28;20083;-65
2022/03/15 02:56:19;;;;;;;5.43;2.25;;;7.30;58.90;;;;;;4938991;28;20048;-66
2022/03/15 02:58:44;;;;;;;4.95;2.30;;;7.30;58.90;;;;;;4929923;28;20047;-66
2022/03/15 03:01:10;;;;;;;7.28;2.13;;;7.30;59.00;;;;;;4933372;28;20038;-66
2022/03/15 03:03:37;;;;;;;4.25;2.38;;;7.30;59.00;;;;;;4931966;28;20114;-65
2022/03/15 03:06:03;;;;;;;7.72;2.75;;;7.30;59.10;;;;;;4934609;28;20039;-66
2022/03/15 03:08:31;;;;;;;6.38;2.30;;;7.30;59.10;;;;;;4935016;28;20042;-67
2022/03/15 03:10:58;;;;;;;4.20;2.58;;;7.20;59.10;;;;;;4935178;28;20047;-65
2022/03/15 03:13:27;;;;;;;12.75;2.72;;;7.20;59.10;;;;;;4936930;28;20040;-66
2022/03/15 03:15:58;;;;;;;5.43;2.42;;;7.20;59.20;;;;;;4933119;28;20190;-65
2022/03/15 03:18:32;;;;;;;6.75;2.42;;;7.10;59.50;;;;;;4936904;28;20070;-67
2022/03/15 03:20:58;;;;;;;8.95;2.90;;;7.10;59.50;;;;;;4936227;28;20039;-66
2022/03/15 03:23:25;;;;;;;5.78;2.63;;;7.10;59.40;;;;;;4933222;28;20047;-66
2022/03/15 03:25:50;;;;;;;5.18;2.70;;;7.00;59.40;;;;;;4934893;28;20035;-66
2022/03/15 03:28:17;;;;;;;5.70;2.75;;;7.00;60.00;;;;;;4934356;28;20515;-66
2022/03/15 03:30:47;;;;;;;5.80;2.53;;;7.00;59.50;;;;;;4933860;28;20577;-66
2022/03/15 03:33:18;;;;;;;6.18;2.55;;;7.00;59.50;;;;;;4933692;28;20401;-66
2022/03/15 03:35:44;;;;;;;5.80;2.45;;;6.90;59.60;;;;;;4935638;28;20118;-66
2022/03/15 03:38:11;;;;;;;10.00;2.67;;;6.90;59.60;;;;;;4936895;28;20038;-66
2022/03/15 03:40:37;;;;;;;6.45;2.47;;;6.90;59.70;;;;;;4937736;28;20055;-66
2022/03/15 03:43:04;;;;;;;5.30;2.67;;;6.80;59.70;;;;;;4936568;28;20507;-66
2022/03/15 03:45:29;;;;;;;3.78;2.10;;;6.80;59.90;;;;;;4933942;28;20049;-65
2022/03/15 03:47:55;;;;;;;5.22;2.55;;;6.70;59.90;;;;;;4934604;28;20433;-63
2022/03/15 03:50:21;;;;;;;4.95;2.30;;;6.70;59.90;;;;;;4936582;28;20242;-66
2022/03/15 03:52:47;;;;;;;5.43;2.70;;;6.60;60.00;;;;;;4935787;28;20499;-66
2022/03/15 03:55:12;;;;;;;3.85;2.25;;;6.60;60.20;;;;;;4936127;28;20041;-66
2022/03/15 03:57:38;;;;;;;6.32;2.58;;;6.60;60.30;;;;;;4935622;28;20067;-65
2022/03/15 04:00:06;;;;;;;4.88;2.60;;;6.60;60.40;;;;;;4932804;28;20042;-66
2022/03/15 04:02:32;;;;;;;5.03;2.40;;;6.50;60.60;;;;;;4933901;28;20032;-66
2022/03/15 04:04:58;;;;;;;4.88;2.40;;;6.50;60.70;;;;;;4934251;28;20035;-65
2022/03/15 04:07:24;;;;;;;5.22;2.28;;;6.40;60.70;;;;;;4936114;28;20027;-66
2022/03/15 04:09:50;;;;;;;7.45;2.75;;;6.40;60.70;;;;;;4938641;28;20446;-66
2022/03/15 04:12:20;;;;;;;9.05;2.80;;;6.30;60.70;;;;;;4940242;28;20423;-66
2022/03/15 04:14:46;;;;;;;7.32;3.15;;;6.30;60.70;;;;;;4939079;28;20035;-65
2022/03/15 04:17:13;;;;;;;11.35;3.30;;;6.30;61.10;;;;;;4941858;28;20137;-66
2022/03/15 04:19:38;;;;;;;8.50;3.00;;;6.30;61.30;;;;;;4939646;28;20436;-65
2022/03/15 04:22:04;;;;;;;5.82;3.10;;;6.30;61.40;;;;;;4939969;28;20114;-65
2022/03/15 04:24:31;;;;;;;5.53;2.95;;;6.20;61.50;;;;;;4935190;28;20036;-65
2022/03/15 04:26:58;;;;;;;8.88;3.35;;;6.20;61.60;;;;;;4932002;28;20028;-66
2022/03/15 04:29:24;;;;;;;9.05;3.20;;;6.20;62.00;;;;;;4934710;28;20051;-65
2022/03/15 04:31:50;;;;;;;7.57;3.15;;;6.10;62.30;;;;;;4933259;28;20661;-66
2022/03/15 04:34:15;;;;;;;7.57;3.40;;;6.10;62.50;;;;;;4940452;28;20038;-66
2022/03/15 04:36:41;;;;;;;7.43;3.35;;;6.00;62.50;;;;;;4934603;28;20032;-66
2022/03/15 04:39:06;;;;;;;6.95;3.72;;;6.00;62.80;;;;;;4935905;28;20071;-65
2022/03/15 04:41:32;;;;;;;6.78;3.15;;;6.00;62.80;;;;;;4934592;28;20247;-66
2022/03/15 04:43:58;;;;;;;6.03;2.97;;;6.00;62.80;;;;;;4933164;28;20091;-64
2022/03/15 04:46:24;;;;;;;11.15;4.10;;;6.10;62.80;;;;;;4934393;28;20032;-67
2022/03/15 04:48:50;;;;;;;5.38;3.47;;;6.10;62.80;;;;;;4933140;28;20472;-65
2022/03/15 04:51:15;;;;;;;8.15;3.75;;;6.10;62.60;;;;;;4934968;28;20042;-65
2022/03/15 04:53:41;;;;;;;6.60;3.78;;;6.20;62.80;;;;;;4941417;28;20138;-66
2022/03/15 04:56:07;;;;;;;6.45;4.07;;;6.10;62.80;;;;;;4941932;28;20581;-66
2022/03/15 04:58:33;;;;;;;7.78;4.20;;;6.20;62.80;;;;;;4934526;28;20141;-65
2022/03/15 05:00:59;;;;;;;8.68;6.03;;;6.20;63.00;;;;;;4933826;28;20118;-64
2022/03/15 05:03:24;;;;;;;13.35;4.35;;;6.20;62.90;;;;;;4935241;28;20032;-66
2022/03/15 05:05:50;;;;;;;10.57;4.13;;;6.20;62.80;;;;;;4935388;28;20046;-66
2022/03/15 05:08:16;;;;;;;8.77;3.72;;;6.20;62.90;;;;;;4933590;28;20035;-66
2022/03/15 05:13:28;;;;;;;11.27;3.90;;;6.20;63.00;;;;;;4933507;28;20051;-66
2022/03/15 05:15:53;;;;;;;7.43;3.53;;;6.30;63.00;;;;;;4934512;28;20588;-64
2022/03/15 05:18:19;;;;;;;6.03;3.55;;;6.20;63.20;;;;;;4935953;28;20046;-65
2022/03/15 05:20:45;;;;;;;7.97;3.60;;;6.20;63.40;;;;;;4935682;28;20122;-64
2022/03/15 05:23:11;;;;;;;7.00;3.83;;;6.30;63.30;;;;;;4934099;28;20035;-66
2022/03/15 05:25:36;;;;;;;8.07;4.15;;;6.30;63.50;;;;;;4933976;28;20053;-65
2022/03/15 05:28:02;;;;;;;7.22;3.72;;;6.20;63.30;;;;;;4932416;28;20031;-63
2022/03/15 05:30:28;;;;;;;9.75;4.63;;;6.20;63.30;;;;;;4933100;28;20492;-66
2022/03/15 05:32:54;;;;;;;8.40;4.20;;;6.30;63.30;;;;;;4934735;28;20053;-65
2022/03/15 05:35:21;;;;;;;11.27;6.45;;;6.30;63.30;;;;;;4934485;28;20040;-66
2022/03/15 05:37:46;;;;;;;10.85;5.07;;;6.30;63.20;;;;;;4932628;28;20069;-65
2022/03/15 05:40:12;;;;;;;10.50;4.95;;;6.30;63.10;;;;;;4933438;28;20114;-66
2022/03/15 05:42:38;;;;;;;9.35;4.75;;;6.40;63.20;;;;;;4938757;28;20055;-66
2022/03/15 05:45:04;;;;;;;10.80;4.78;;;6.40;63.30;;;;;;4939239;28;20396;-64
2022/03/15 05:47:30;;;;;;;12.82;4.72;;;6.30;63.30;;;;;;4944216;28;20046;-65
2022/03/15 05:49:55;;;;;;;10.27;4.72;;;6.30;63.40;;;;;;4942948;28;20031;-66
2022/03/15 05:52:21;;;;;;;11.25;4.50;;;6.30;63.60;;;;;;4935944;29;20023;-65
2022/03/15 05:54:47;;;;;;;8.57;4.18;;;6.30;63.70;;;;;;4943598;28;20122;-65
2022/03/15 05:57:12;;;;;;;11.10;4.82;;;6.30;63.70;;;;;;4938972;28;20558;-66
2022/03/15 05:59:38;;;;;;;9.40;4.50;;;6.30;63.70;;;;;;4936805;28;20047;-66
2022/03/15 06:02:04;;;;;;;10.38;4.82;;;6.30;63.90;;;;;;4943840;28;20031;-65
2022/03/15 06:04:30;;;;;;;11.52;4.75;;;6.30;63.90;;;;;;4935982;28;20507;-66
2022/03/15 06:06:56;;;;;;;16.52;4.57;;;6.30;63.80;;;;;;4937718;28;20093;-65
2022/03/15 06:09:23;;;;;;;12.98;5.00;;;6.40;63.90;;;;;;4936961;28;20507;-66
2022/03/15 06:11:49;;;;;;;15.50;5.55;;;6.40;63.90;;;;;;4935344;28;20036;-66
2022/03/15 06:14:15;;;;;;;15.35;6.00;;;6.40;63.90;;;;;;4937577;28;20091;-66
2022/03/15 06:16:40;;;;;;;15.30;5.97;;;6.40;64.00;;;;;;4937088;28;20035;-65
2022/03/15 06:19:06;;;;;;;22.90;7.20;;;6.50;64.10;;;;;;4937470;28;20451;-66
2022/03/15 06:21:32;;;;;;;29.42;8.02;;;6.60;64.10;;;;;;4936717;28;20490;-65
2022/03/15 06:23:58;;;;;;;29.60;8.65;;;6.60;64.00;;;;;;4937799;28;20311;-66
2022/03/15 06:26:24;;;;;;;20.67;5.90;;;6.60;64.10;;;;;;4952145;28;20039;-64
2022/03/15 06:28:49;;;;;;;18.35;5.53;;;6.60;64.20;;;;;;4937625;28;20031;-66
2022/03/15 06:31:15;;;;;;;12.20;4.97;;;6.70;64.20;;;;;;4936687;28;20522;-65
2022/03/15 06:33:44;;;;;;;14.65;4.53;;;6.70;64.10;;;;;;4935945;28;20047;-66
2022/03/15 06:36:11;;;;;;;24.20;7.78;;;6.70;64.00;;;;;;4936317;28;20031;-66
2022/03/15 06:38:40;;;;;;;13.23;4.55;;;6.80;64.00;;;;;;4935349;28;20043;-65
2022/03/15 06:41:07;;;;;;;12.55;4.75;;;6.80;64.00;;;;;;4936990;28;20034;-66
2022/03/15 06:43:34;;;;;;;13.85;5.03;;;6.90;64.10;;;;;;4937105;28;20499;-65
2022/03/15 06:45:59;;;;;;;13.32;5.95;;;6.90;64.10;;;;;;4938288;28;20094;-66
2022/03/15 06:48:25;;;;;;;16.48;4.72;;;6.90;64.10;;;;;;4938378;28;20044;-66
2022/03/15 06:50:52;;;;;;;14.80;4.20;;;6.90;63.90;;;;;;4939578;28;20122;-66
2022/03/15 06:53:18;;;;;;;10.00;4.50;;;7.00;64.00;;;;;;4936711;28;20406;-65
2022/03/15 06:55:44;;;;;;;14.02;4.53;;;7.10;64.10;;;;;;4934696;28;20036;-66
2022/03/15 06:58:10;;;;;;;14.80;3.83;;;7.10;64.00;;;;;;4937930;28;20036;-66
2022/03/15 07:00:35;;;;;;;11.63;3.70;;;7.10;63.80;;;;;;4935773;28;20138;-65
2022/03/15 07:03:01;;;;;;;18.13;4.57;;;7.20;63.80;;;;;;4937401;28;20403;-66
2022/03/15 07:05:26;;;;;;;22.55;3.85;;;7.20;63.80;;;;;;4936172;28;20039;-66
2022/03/15 07:07:52;;;;;;;10.77;3.83;;;7.20;63.80;;;;;;4937796;28;20414;-66
2022/03/15 07:10:20;;;;;;;11.77;3.95;;;7.30;63.80;;;;;;4936270;28;20249;-66
2022/03/15 07:12:46;;;;;;;7.28;3.88;;;7.20;63.60;;;;;;4935620;28;20051;-66
2022/03/15 07:15:13;;;;;;;8.77;4.10;;;7.30;63.80;;;;;;4937327;28;20046;-66
2022/03/15 07:17:49;;;;;;;12.15;4.20;;;7.30;63.80;;;;;;4936521;28;20043;-65
2022/03/15 07:20:15;;;;;;;10.45;4.60;;;7.30;64.10;;;;;;4935382;28;20036;-63
2022/03/15 07:22:41;;;;;;;16.80;4.28;;;7.30;63.70;;;;;;4934927;28;20044;-66
2022/03/15 07:25:07;;;;;;;7.90;4.50;;;7.30;63.80;;;;;;4937260;28;20032;-66
2022/03/15 07:27:33;;;;;;;7.03;4.45;;;7.40;63.90;;;;;;4936867;28;20031;-65
2022/03/15 07:29:58;;;;;;;8.07;4.25;;;7.40;64.00;;;;;;4936845;28;20032;-65
2022/03/15 07:32:24;;;;;;;12.65;4.57;;;7.50;64.00;;;;;;4935050;28;20379;-63
2022/03/15 07:34:50;;;;;;;9.25;4.50;;;7.50;63.80;;;;;;4934785;28;20031;-65
2022/03/15 07:37:15;;;;;;;12.48;5.00;;;7.50;63.80;;;;;;4937440;28;20384;-66
2022/03/15 07:39:41;;;;;;;13.80;4.35;;;7.60;63.80;;;;;;4934520;28;20431;-66
2022/03/15 07:42:06;;;;;;;7.97;4.15;;;7.70;63.90;;;;;;4936481;28;20514;-65
2022/03/15 07:44:32;;;;;;;12.32;4.57;;;7.70;63.80;;;;;;4936680;28;20462;-66
2022/03/15 07:46:58;;;;;;;13.90;4.85;;;7.80;63.80;;;;;;4936393;28;20036;-66
2022/03/15 07:49:24;;;;;;;11.52;4.38;;;7.80;63.60;;;;;;4936610;28;20469;-65
2022/03/15 07:51:49;;;;;;;9.80;4.05;;;7.80;63.40;;;;;;4936595;28;20039;-66
2022/03/15 07:54:16;;;;;;;9.80;4.15;;;7.80;63.30;;;;;;4940190;28;20046;-66
2022/03/15 07:56:42;;;;;;;7.97;3.97;;;7.80;63.30;;;;;;4937065;28;20046;-66
2022/03/15 07:59:08;;;;;;;8.27;4.13;;;7.80;63.40;;;;;;4941096;28;20035;-66
2022/03/15 08:01:34;;;;;;;8.02;3.92;;;7.80;63.40;;;;;;4941113;28;20415;-66
2022/03/15 08:04:00;;;;;;;18.70;4.80;;;7.80;63.40;;;;;;4943048;28;20036;-66
2022/03/15 08:06:26;;;;;;;10.93;4.00;;;7.70;63.40;;;;;;4941804;28;20035;-66
2022/03/15 08:08:56;;;;;;;7.38;4.28;;;7.70;63.70;;;;;;4940259;28;20463;-65
2022/03/15 08:11:23;;;;;;;8.23;3.85;;;7.80;63.60;;;;;;4936476;28;20664;-66
2022/03/15 08:13:49;;;;;;;10.10;4.25;;;7.80;63.70;;;;;;4937998;28;20035;-66
2022/03/15 08:16:15;;;;;;;10.10;4.28;;;7.80;63.80;;;;;;4940848;28;20032;-66
2022/03/15 08:18:40;;;;;;;7.05;4.05;;;7.80;63.90;;;;;;4938780;28;20510;-66
2022/03/15 08:21:07;;;;;;;7.93;3.88;;;7.90;64.10;;;;;;4938216;28;20142;-66
2022/03/15 08:23:33;;;;;;;7.63;4.07;;;8.00;64.00;;;;;;4938214;28;20309;-66
2022/03/15 08:25:58;;;;;;;5.38;3.65;;;8.10;64.00;;;;;;4939159;28;20046;-66
2022/03/15 08:28:26;;;;;;;8.55;3.60;;;8.10;63.80;;;;;;4938266;28;20046;-67
2022/03/15 08:30:53;;;;;;;10.57;3.50;;;8.20;63.80;;;;;;4939375;28;20734;-65
2022/03/15 08:33:19;;;;;;;5.22;3.50;;;8.20;63.80;;;;;;4937844;28;20043;-66
2022/03/15 08:35:45;;;;;;;6.47;3.70;;;8.30;63.80;;;;;;4938552;28;20075;-66
2022/03/15 08:38:11;;;;;;;8.32;3.33;;;8.40;63.80;;;;;;4938634;28;20035;-65
2022/03/15 08:40:37;;;;;;;6.03;3.55;;;8.40;63.90;;;;;;4937187;28;20046;-66
2022/03/15 08:43:03;;;;;;;5.63;3.20;;;8.50;64.00;;;;;;4939653;28;20466;-66
2022/03/15 08:45:28;;;;;;;9.60;3.58;;;8.60;63.90;;;;;;4938440;28;20098;-66
2022/03/15 08:47:54;;;;;;;10.27;3.28;;;8.60;64.10;;;;;;4940236;28;20403;-66
2022/03/15 08:50:20;;;;;;;5.85;3.10;;;8.60;64.10;;;;;;4938143;28;20041;-66
2022/03/15 08:52:47;;;;;;;5.05;3.13;;;8.70;64.10;;;;;;4936944;28;20035;-65
2022/03/15 08:55:14;;;;;;;4.38;3.00;;;8.70;65.00;;;;;;4940163;28;20138;-65
2022/03/15 08:57:40;;;;;;;5.25;3.15;;;8.70;64.10;;;;;;4937159;28;20049;-66
2022/03/15 09:00:09;;;;;;;8.75;3.63;;;8.80;64.30;;;;;;4938595;28;20028;-66
2022/03/15 09:02:34;;;;;;;5.50;3.25;;;8.80;64.40;;;;;;4932808;28;20032;-65
2022/03/15 09:05:00;;;;;;;6.68;3.58;;;8.90;64.10;;;;;;4944002;28;20042;-66
2022/03/15 09:07:27;;;;;;;4.45;3.15;;;8.90;64.00;;;;;;4938359;28;20118;-66
2022/03/15 09:09:53;;;;;;;6.75;3.05;;;9.00;63.80;;;;;;4937263;28;20102;-66
2022/03/15 09:12:19;;;;;;;7.07;5.10;;;9.00;63.80;;;;;;4937295;28;20462;-66
2022/03/15 09:14:45;;;;;;;5.50;3.28;;;9.00;63.90;;;;;;4937588;28;20035;-66
2022/03/15 09:17:11;;;;;;;8.00;3.05;;;9.10;63.80;;;;;;4939555;28;20043;-66
2022/03/15 09:19:40;;;;;;;8.15;5.30;;;9.10;63.70;;;;;;4939150;28;20040;-66
2022/03/15 09:22:06;;;;;;;11.75;4.00;;;9.10;63.80;;;;;;4940812;28;20429;-66
2022/03/15 09:24:34;;;;;;;5.65;3.90;;;9.10;63.80;;;;;;4938172;28;20035;-66
2022/03/15 09:27:00;;;;;;;7.78;3.65;;;9.20;64.00;;;;;;4938960;28;20042;-66
2022/03/15 09:29:26;;;;;;;8.07;3.55;;;9.10;64.00;;;;;;4939285;28;20043;-66
2022/03/15 09:31:51;;;;;;;7.32;3.45;;;9.20;64.10;;;;;;4936822;28;20118;-66
2022/03/15 09:34:18;;;;;;;6.97;3.30;;;9.20;64.10;;;;;;4937892;28;20059;-66
2022/03/15 09:36:44;;;;;;;7.88;3.47;;;9.20;64.00;;;;;;4936578;28;20071;-66
2022/03/15 09:39:10;;;;;;;3.90;3.35;;;9.30;64.10;;;;;;4937436;28;20039;-65
2022/03/15 09:41:40;;;;;;;5.30;3.78;;;9.30;64.20;;;;;;4937457;28;20047;-65
2022/03/15 09:44:09;;;;;;;5.22;3.50;;;9.30;64.50;;;;;;4937751;28;20035;-66
2022/03/15 09:46:42;;;;;;;6.63;3.15;;;9.30;64.30;;;;;;4939793;28;20101;-66
2022/03/15 09:49:08;;;;;;;5.50;3.63;;;9.30;64.80;;;;;;4936794;28;20150;-65
2022/03/15 09:51:35;;;;;;;8.85;3.75;;;9.30;64.50;;;;;;4939354;28;20032;-65
2022/03/15 09:54:03;;;;;;;4.60;3.47;;;9.30;64.50;;;;;;4951852;28;20066;-66
2022/03/15 09:56:30;;;;;;;5.80;3.67;;;9.30;64.60;;;;;;4938018;28;20115;-66
2022/03/15 09:58:55;;;;;;;4.90;3.60;;;9.30;64.90;;;;;;4937379;28;20039;-65
2022/03/15 10:01:21;;;;;;;7.00;3.75;;;9.30;65.00;;;;;;4938349;28;20045;-66
2022/03/15 10:03:47;;;;;;;7.32;3.90;;;9.30;65.10;;;;;;4937028;28;20068;-66
2022/03/15 10:06:14;;;;;;;6.18;3.53;;;9.30;65.20;;;;;;4938650;28;20071;-66
2022/03/15 10:08:40;;;;;;;7.72;4.00;;;9.30;65.50;;;;;;4936392;28;20036;-66
2022/03/15 10:11:06;;;;;;;7.00;3.63;;;9.40;65.50;;;;;;4937040;28;20538;-65
2022/03/15 10:13:33;;;;;;;4.63;3.33;;;9.40;65.50;;;;;;4939577;28;20091;-64
2022/03/15 10:16:01;;;;;;;6.53;3.92;;;9.40;65.70;;;;;;4938226;28;20036;-65
2022/03/15 10:18:27;;;;;;;7.45;3.92;;;9.50;65.80;;;;;;4937271;28;20031;-66
2022/03/15 10:20:54;;;;;;;5.25;3.50;;;9.50;65.80;;;;;;4937314;28;20039;-66
2022/03/15 10:23:29;;;;;;;7.47;3.35;;;9.60;65.90;;;;;;4938264;28;20114;-66
2022/03/15 10:25:56;;;;;;;6.10;3.42;;;9.60;65.90;;;;;;4937873;28;20043;-65
2022/03/15 10:28:22;;;;;;;5.82;3.28;;;9.60;66.70;;;;;;4937782;28;20146;-66
2022/03/15 10:30:49;;;;;;;5.55;3.47;;;9.70;66.20;;;;;;4937145;28;20537;-65
2022/03/15 10:33:17;;;;;;;6.38;3.42;;;9.70;66.00;;;;;;4938393;28;20518;-65
2022/03/15 10:35:45;;;;;;;5.18;3.30;;;9.70;66.10;;;;;;4942100;28;20040;-63
2022/03/15 10:38:12;;;;;;;4.07;3.47;;;9.80;66.20;;;;;;4938709;28;20039;-66
2022/03/15 10:40:45;;;;;;;4.65;3.55;;;9.80;66.20;;;;;;4936832;28;20040;-65
2022/03/15 10:43:14;;;;;;;6.35;3.40;;;9.80;66.20;;;;;;4937391;28;20036;-66
2022/03/15 10:45:45;;;;;;;6.93;3.42;;;9.80;66.00;;;;;;4943020;28;20035;-66
2022/03/15 10:48:23;;;;;;;5.82;3.65;;;9.80;66.50;;;;;;4940072;28;20190;-67
2022/03/15 10:51:21;;;;;;;5.72;3.60;;;9.90;66.80;;;;;;4936659;28;20043;-66
2022/03/15 10:53:48;;;;;;;4.10;3.22;;;9.90;67.00;;;;;;4921208;29;20042;-66
2022/03/15 10:56:17;;;;;;;6.82;3.53;;;9.90;66.00;;;;;;4936099;28;20042;-66
2022/03/15 10:58:51;;;;;;;8.13;3.67;;;9.90;66.30;;;;;;4936496;28;20035;-66
2022/03/15 11:01:19;;;;;;;8.55;3.30;;;9.90;66.20;;;;;;4936402;28;20027;-66
2022/03/15 11:03:57;;;;;;;5.97;3.45;;;9.90;66.00;;;;;;4936921;28;20059;-66
2022/03/15 11:06:38;;;;;;;5.90;3.88;;;9.90;66.70;;;;;;4935329;28;20031;-66
2022/03/15 11:09:32;;;;;;;8.38;5.03;;;9.90;66.50;;;;;;4936630;28;20031;-66
2022/03/15 11:12:04;;;;;;;6.90;4.30;;;9.90;67.60;;;;;;4935592;28;20507;-65
2022/03/15 11:14:45;;;;;;;7.38;4.13;;;10.00;66.20;;;;;;4935020;28;20039;-66
2022/03/15 11:17:25;;;;;;;8.75;3.90;;;10.00;66.40;;;;;;4937133;28;20065;-66
2022/03/15 11:19:50;;;;;;;5.57;3.65;;;10.00;66.60;;;;;;4938064;28;20047;-66
2022/03/15 11:22:26;;;;;;;6.72;3.55;;;10.00;65.90;;;;;;4934661;28;20453;-64
2022/03/15 11:25:06;;;;;;;9.88;4.75;;;10.10;66.10;;;;;;4937222;28;20095;-66
2022/03/15 11:27:40;;;;;;;4.10;3.42;;;10.10;66.60;;;;;;4936102;28;20048;-66
2022/03/15 11:30:10;;;;;;;13.80;7.85;;;10.20;66.20;;;;;;4939159;28;20044;-66
2022/03/15 11:32:37;;;;;;;12.27;7.40;;;10.20;66.20;;;;;;4940452;28;20478;-65
2022/03/15 11:35:05;;;;;;;12.52;6.40;;;10.20;66.10;;;;;;4939958;28;20046;-66
2022/03/15 11:37:31;;;;;;;7.00;4.50;;;10.20;66.30;;;;;;4940032;28;20035;-66
2022/03/15 11:40:03;;;;;;;10.32;4.15;;;10.20;66.30;;;;;;4938960;28;20407;-64
2022/03/15 11:42:29;;;;;;;6.38;3.85;;;10.20;66.40;;;;;;4942093;28;20043;-65
2022/03/15 11:45:13;;;;;;;5.07;3.53;;;10.20;66.20;;;;;;4939714;28;20039;-66
2022/03/15 11:47:57;;;;;;;6.20;3.47;;;10.20;67.00;;;;;;4941500;28;20062;-65
2022/03/15 11:50:44;;;;;;;5.37;3.30;;;10.20;67.10;;;;;;4941269;28;20028;-66
2022/03/15 11:53:35;;;;;;;4.47;3.40;;;10.20;66.40;;;;;;4938349;28;20036;-66
2022/03/15 11:56:05;;;;;;;5.40;3.60;;;10.20;66.90;;;;;;4940125;28;20142;-66
2022/03/15 11:58:32;;;;;;;8.57;3.67;;;10.20;66.20;;;;;;4940560;28;20448;-66
2022/03/15 12:01:12;;;;;;;4.78;3.40;;;10.20;66.40;;;;;;4940712;28;20059;-66
2022/03/15 12:03:53;;;;;;;6.30;5.10;;;10.20;66.90;;;;;;4941733;28;20031;-66
2022/03/15 12:06:28;;;;;;;10.68;5.22;;;10.20;67.10;;;;;;4941023;28;20090;-66
2022/03/15 12:09:00;;;;;;;6.93;3.45;;;10.20;67.10;;;;;;4939896;28;20039;-66
2022/03/15 12:11:26;;;;;;;4.45;3.50;;;10.20;67.30;;;;;;4936962;28;20537;-64
2022/03/15 12:13:57;;;;;;;13.23;4.07;;;10.20;66.90;;;;;;4941395;28;20514;-66
2022/03/15 12:16:41;;;;;;;4.07;3.33;;;10.10;66.90;;;;;;4940100;28;20040;-66
2022/03/15 12:19:23;;;;;;;6.03;3.60;;;10.10;67.60;;;;;;4938941;28;20122;-65
2022/03/15 12:21:54;;;;;;;3.80;3.05;;;10.00;67.40;;;;;;4939523;28;20035;-66
2022/03/15 12:24:31;;;;;;;5.97;4.15;;;10.10;67.70;;;;;;4937553;28;20158;-66
2022/03/15 12:27:06;;;;;;;5.30;3.85;;;10.00;68.20;;;;;;4936382;28;20035;-66
2022/03/15 12:29:33;;;;;;;7.70;4.35;;;10.00;68.10;;;;;;4939795;28;20122;-65
2022/03/15 12:32:11;;;;;;;4.60;3.55;;;10.00;68.10;;;;;;4939245;28;20042;-66
2022/03/15 12:34:39;;;;;;;4.72;3.60;;;10.00;69.30;;;;;;4939638;28;20042;-66
2022/03/15 12:37:07;;;;;;;4.90;3.83;;;9.90;68.60;;;;;;4938583;28;20099;-65
2022/03/15 12:39:33;;;;;;;7.53;3.88;;;10.00;69.20;;;;;;4939022;28;20099;-65
2022/03/15 12:42:11;;;;;;;7.43;4.13;;;9.90;69.20;;;;;;4940448;28;20348;-65
2022/03/15 12:44:42;;;;;;;5.53;4.07;;;9.90;69.50;;;;;;4939044;28;20086;-65
2022/03/15 12:47:09;;;;;;;5.63;3.92;;;9.90;69.90;;;;;;4939814;28;20036;-65
2022/03/15 12:49:35;;;;;;;6.05;4.25;;;9.90;69.50;;;;;;4938334;28;20439;-65
2022/03/15 12:52:13;;;;;;;6.20;4.10;;;9.90;70.00;;;;;;4937842;28;20031;-65
2022/03/15 12:54:40;;;;;;;5.28;4.30;;;9.90;70.60;;;;;;4938930;28;20379;-65
2022/03/15 12:57:16;;;;;;;5.25;4.20;;;9.90;70.00;;;;;;4937362;28;20040;-65